createdAt,value
2023-03-04T00:01:26.600Z,2.50
2023-03-04T00:03:53.266Z,2.50
2023-03-04T00:06:19.945Z,2.60
2023-03-04T00:08:46.556Z,2.60
2023-03-04T00:11:13.415Z,2.60
2023-03-04T00:13:40.096Z,2.70
2023-03-04T00:16:07.007Z,2.70
2023-03-04T00:18:33.629Z,2.70
2023-03-04T00:21:00.260Z,2.70
2023-03-04T00:23:26.939Z,2.70
2023-03-04T00:25:53.544Z,2.70
2023-03-04T00:28:20.161Z,2.70
2023-03-04T00:30:46.924Z,2.80
2023-03-04T00:33:13.725Z,2.70
2023-03-04T00:35:41.221Z,2.80
2023-03-04T00:38:08.448Z,2.70
2023-03-04T00:40:36.105Z,2.80
2023-03-04T00:43:04.593Z,2.80
2023-03-04T00:45:31.366Z,2.70
2023-03-04T00:47:58.070Z,2.70
2023-03-04T00:50:24.708Z,2.80
2023-03-04T00:52:51.488Z,2.80
2023-03-04T00:55:18.240Z,2.80
2023-03-04T00:57:44.921Z,2.80
2023-03-04T01:00:12.318Z,2.70
2023-03-04T01:02:39.080Z,2.70
2023-03-04T01:05:06.467Z,2.80
2023-03-04T01:07:34.073Z,2.70
2023-03-04T01:10:00.998Z,2.70
2023-03-04T01:12:28.172Z,2.80
2023-03-04T01:14:54.823Z,2.80
2023-03-04T01:17:21.890Z,2.80
2023-03-04T01:19:48.592Z,2.70
2023-03-04T01:22:16.592Z,2.70
2023-03-04T01:24:43.266Z,2.80
2023-03-04T01:27:09.908Z,2.80
2023-03-04T01:29:36.553Z,2.80
2023-03-04T01:32:04.020Z,2.80
2023-03-04T01:34:31.156Z,2.70
2023-03-04T01:36:57.770Z,2.70
2023-03-04T01:39:24.440Z,2.80
2023-03-04T01:41:51.499Z,2.80
2023-03-04T01:44:18.220Z,2.60
2023-03-04T01:46:50.707Z,2.60
2023-03-04T01:49:17.668Z,2.60
2023-03-04T01:51:49.044Z,2.70
2023-03-04T01:54:16.720Z,2.60
2023-03-04T01:56:46.615Z,2.60
2023-03-04T01:59:16.182Z,2.70
2023-03-04T02:01:46.345Z,2.70
2023-03-04T02:04:14.889Z,2.70
2023-03-04T02:06:42.312Z,2.70
2023-03-04T02:09:09.842Z,2.70
2023-03-04T02:11:38.101Z,2.70
2023-03-04T02:14:05.902Z,2.70
2023-03-04T02:16:33.018Z,2.70
2023-03-04T02:19:00.387Z,2.70
2023-03-04T02:21:33.112Z,2.70
2023-03-04T02:24:23.884Z,2.70
2023-03-04T02:26:50.882Z,2.70
2023-03-04T02:29:18.505Z,2.70
2023-03-04T02:31:47.622Z,2.70
2023-03-04T02:34:23.945Z,2.80
2023-03-04T02:36:53.155Z,2.70
2023-03-04T02:39:20.023Z,2.70
2023-03-04T02:41:48.675Z,2.70
2023-03-04T02:44:17.486Z,2.70
2023-03-04T02:46:44.716Z,2.70
2023-03-04T02:49:11.391Z,2.70
2023-03-04T02:51:38.068Z,2.70
2023-03-04T02:54:04.834Z,2.70
2023-03-04T02:56:31.529Z,2.70
2023-03-04T02:58:58.167Z,2.70
2023-03-04T03:01:28.974Z,2.70
2023-03-04T03:03:55.996Z,2.80
2023-03-04T03:06:22.657Z,2.80
2023-03-04T03:08:49.903Z,2.80
2023-03-04T03:11:17.212Z,2.80
2023-03-04T03:13:44.672Z,2.90
2023-03-04T03:16:11.524Z,2.80
2023-03-04T03:18:38.368Z,2.80
2023-03-04T03:21:05.208Z,2.80
2023-03-04T03:23:31.809Z,3.00
2023-03-04T03:25:58.424Z,2.90
2023-03-04T03:28:27.792Z,2.90
2023-03-04T03:30:54.908Z,3.00
2023-03-04T03:33:21.688Z,2.90
2023-03-04T03:35:49.051Z,2.90
2023-03-04T03:38:15.795Z,3.00
2023-03-04T03:40:42.421Z,3.00
2023-03-04T03:43:09.285Z,3.00
2023-03-04T03:45:35.975Z,3.00
2023-03-04T03:48:02.780Z,3.00
2023-03-04T03:50:29.473Z,3.00
2023-03-04T03:52:56.377Z,3.00
2023-03-04T03:55:23.248Z,3.00
2023-03-04T03:57:50.035Z,3.00
2023-03-04T04:00:17.282Z,3.10
2023-03-04T04:02:44.017Z,3.10
2023-03-04T04:05:10.981Z,3.10
2023-03-04T04:07:37.922Z,3.00
2023-03-04T04:10:05.574Z,3.00
2023-03-04T04:12:32.405Z,2.90
2023-03-04T04:14:59.076Z,3.00
2023-03-04T04:17:25.880Z,3.00
2023-03-04T04:19:52.549Z,2.90
2023-03-04T04:22:20.703Z,2.90
2023-03-04T04:24:48.762Z,3.00
2023-03-04T04:27:15.557Z,3.00
2023-03-04T04:29:42.380Z,3.00
2023-03-04T04:32:09.121Z,2.90
2023-03-04T04:34:35.895Z,2.90
2023-03-04T04:37:02.516Z,3.00
2023-03-04T04:39:29.156Z,2.90
2023-03-04T04:41:55.784Z,2.90
2023-03-04T04:44:22.426Z,2.90
2023-03-04T04:46:50.157Z,3.00
2023-03-04T04:49:16.777Z,2.90
2023-03-04T04:51:43.960Z,3.00
2023-03-04T04:54:12.386Z,3.00
2023-03-04T04:56:39.016Z,3.00
2023-03-04T04:59:08.384Z,3.10
2023-03-04T05:01:35.547Z,3.10
2023-03-04T05:04:02.408Z,3.10
2023-03-04T05:06:29.055Z,3.00
2023-03-04T05:08:55.883Z,2.90
2023-03-04T05:11:22.742Z,3.00
2023-03-04T05:13:49.770Z,3.00
2023-03-04T05:16:17.761Z,3.00
2023-03-04T05:18:44.682Z,2.90
2023-03-04T05:21:11.421Z,3.00
2023-03-04T05:23:40.689Z,2.90
2023-03-04T05:26:09.940Z,2.90
2023-03-04T05:28:36.604Z,2.90
2023-03-04T05:31:03.639Z,2.90
2023-03-04T05:33:30.514Z,2.90
2023-03-04T05:35:57.743Z,2.90
2023-03-04T05:38:28.745Z,3.00
2023-03-04T05:40:58.600Z,3.00
2023-03-04T05:43:27.492Z,3.00
2023-03-04T05:45:55.253Z,2.90
2023-03-04T05:48:21.993Z,3.00
2023-03-04T05:50:54.300Z,3.00
2023-03-04T05:53:21.016Z,3.00
2023-03-04T05:55:48.042Z,3.00
2023-03-04T05:58:15.946Z,3.10
2023-03-04T06:00:42.760Z,3.10
2023-03-04T06:03:18.735Z,3.00
2023-03-04T06:05:45.873Z,3.00
2023-03-04T06:08:12.954Z,3.00
2023-03-04T06:10:41.142Z,3.00
2023-03-04T06:13:08.141Z,3.00
2023-03-04T06:15:34.868Z,3.00
2023-03-04T06:18:01.928Z,3.10
2023-03-04T06:20:28.782Z,3.00
2023-03-04T06:22:55.462Z,3.10
2023-03-04T06:25:22.894Z,3.10
2023-03-04T06:27:50.810Z,3.10
2023-03-04T06:30:18.522Z,3.10
2023-03-04T06:32:47.478Z,3.10
2023-03-04T06:35:16.136Z,3.10
2023-03-04T06:37:43.266Z,3.00
2023-03-04T06:40:11.588Z,3.00
2023-03-04T06:42:39.863Z,3.00
2023-03-04T06:45:07.400Z,2.90
2023-03-04T06:47:34.013Z,2.90
2023-03-04T06:50:00.616Z,2.90
2023-03-04T06:52:27.233Z,2.90
2023-03-04T06:54:53.873Z,3.00
2023-03-04T06:57:20.533Z,3.00
2023-03-04T06:59:47.156Z,3.00
2023-03-04T07:02:13.884Z,3.10
2023-03-04T07:04:40.551Z,3.20
2023-03-04T07:07:07.189Z,3.10
2023-03-04T07:09:33.819Z,3.10
2023-03-04T07:12:00.470Z,3.10
2023-03-04T07:14:27.801Z,3.10
2023-03-04T07:16:54.852Z,3.10
2023-03-04T07:19:22.103Z,3.10
2023-03-04T07:21:48.822Z,3.10
2023-03-04T07:24:15.545Z,3.10
2023-03-04T07:26:42.584Z,3.10
2023-03-04T07:29:09.345Z,3.20
2023-03-04T07:31:36.791Z,3.30
2023-03-04T07:34:06.140Z,3.40
2023-03-04T07:36:35.596Z,3.40
2023-03-04T07:39:03.514Z,3.30
2023-03-04T07:41:30.851Z,3.40
2023-03-04T07:43:58.565Z,3.30
2023-03-04T07:46:25.572Z,3.30
2023-03-04T07:48:52.244Z,3.20
2023-03-04T07:51:24.300Z,3.30
2023-03-04T07:53:57.489Z,3.40
2023-03-04T07:56:27.539Z,3.40
2023-03-04T07:58:54.358Z,3.40
2023-03-04T08:01:27.229Z,3.50
2023-03-04T08:03:53.966Z,3.50
2023-03-04T08:06:21.804Z,3.60
2023-03-04T08:08:49.132Z,3.50
2023-03-04T08:11:20.115Z,3.50
2023-03-04T08:13:47.382Z,3.50
2023-03-04T08:16:15.971Z,3.50
2023-03-04T08:18:44.357Z,3.40
2023-03-04T08:21:12.515Z,3.40
2023-03-04T08:23:40.715Z,3.40
2023-03-04T08:26:09.954Z,3.50
2023-03-04T08:28:37.246Z,3.40
2023-03-04T08:31:04.067Z,3.50
2023-03-04T08:33:31.899Z,3.40
2023-03-04T08:35:59.186Z,3.40
2023-03-04T08:38:26.797Z,3.40
2023-03-04T08:40:57.343Z,3.40
2023-03-04T08:43:25.844Z,3.40
2023-03-04T08:45:54.203Z,3.40
2023-03-04T08:48:21.722Z,3.30
2023-03-04T08:50:49.358Z,3.40
2023-03-04T08:53:17.197Z,3.30
2023-03-04T08:55:44.833Z,3.30
2023-03-04T08:58:11.588Z,3.30
2023-03-04T09:00:40.861Z,3.40
2023-03-04T09:03:07.532Z,3.40
2023-03-04T09:05:34.286Z,3.50
2023-03-04T09:08:00.873Z,3.50
2023-03-04T09:10:27.764Z,3.50
2023-03-04T09:12:54.587Z,3.60
2023-03-04T09:15:21.251Z,3.60
2023-03-04T09:17:47.984Z,3.60
2023-03-04T09:20:14.784Z,3.50
2023-03-04T09:22:42.959Z,3.60
2023-03-04T09:25:13.457Z,3.50
2023-03-04T09:27:40.471Z,3.60
2023-03-04T09:30:08.578Z,3.40
2023-03-04T09:32:35.296Z,3.50
2023-03-04T09:35:01.922Z,3.50
2023-03-04T09:37:28.576Z,3.50
2023-03-04T09:39:55.285Z,3.50
2023-03-04T09:42:36.059Z,3.50
2023-03-04T09:45:05.476Z,3.60
2023-03-04T09:47:35.337Z,3.50
2023-03-04T09:50:06.735Z,3.50
2023-03-04T09:53:02.216Z,3.60
2023-03-04T09:55:37.107Z,3.60
2023-03-04T09:58:03.677Z,3.70
2023-03-04T10:00:52.388Z,3.60
2023-03-04T10:03:23.447Z,3.70
2023-03-04T10:05:55.473Z,3.70
2023-03-04T10:08:34.917Z,3.70
2023-03-04T10:11:04.904Z,3.70
2023-03-04T10:14:11.789Z,3.70
2023-03-04T10:17:02.327Z,3.70
2023-03-04T10:19:39.639Z,3.70
2023-03-04T10:22:25.953Z,3.70
2023-03-04T10:24:56.697Z,3.80
2023-03-04T10:27:24.683Z,3.70
2023-03-04T10:29:51.512Z,3.70
2023-03-04T10:32:20.395Z,3.70
2023-03-04T10:34:47.711Z,3.70
2023-03-04T10:37:14.539Z,3.80
2023-03-04T10:39:49.697Z,3.80
2023-03-04T10:42:16.420Z,3.90
2023-03-04T10:44:58.340Z,3.80
2023-03-04T10:47:28.496Z,3.90
2023-03-04T10:50:01.017Z,3.90
2023-03-04T10:52:36.813Z,4.00
2023-03-04T10:55:16.259Z,3.90
2023-03-04T10:57:48.254Z,4.00
2023-03-04T11:00:17.724Z,4.10
2023-03-04T11:02:49.034Z,4.00
2023-03-04T11:05:20.249Z,4.10
2023-03-04T11:07:56.711Z,4.00
2023-03-04T11:10:36.184Z,4.00
2023-03-04T11:13:12.291Z,4.10
2023-03-04T11:15:52.623Z,4.10
2023-03-04T11:18:26.995Z,4.00
2023-03-04T11:20:55.113Z,4.10
2023-03-04T11:23:32.351Z,4.00
2023-03-04T11:26:03.239Z,4.10
2023-03-04T11:28:44.176Z,4.10
2023-03-04T11:31:18.428Z,4.10
2023-03-04T11:33:55.497Z,4.20
2023-03-04T11:36:40.544Z,4.10
2023-03-04T11:39:21.941Z,4.20
2023-03-04T11:42:05.069Z,4.10
2023-03-04T11:44:31.739Z,4.20
2023-03-04T11:47:27.326Z,4.20
2023-03-04T11:50:18.967Z,4.20
2023-03-04T11:52:54.439Z,4.30
2023-03-04T11:55:37.791Z,4.30
2023-03-04T11:58:32.268Z,4.30
2023-03-04T12:01:23.384Z,4.50
2023-03-04T12:03:56.056Z,4.50
2023-03-04T12:06:32.168Z,4.50
2023-03-04T12:09:03.583Z,4.60
2023-03-04T12:11:33.243Z,4.60
2023-03-04T12:14:21.636Z,4.70
2023-03-04T12:17:00.024Z,4.70
2023-03-04T12:19:54.995Z,4.70
2023-03-04T12:22:24.606Z,4.90
2023-03-04T12:25:24.425Z,5.00
2023-03-04T12:27:54.547Z,5.10
2023-03-04T12:30:33.049Z,5.00
2023-03-04T12:33:44.779Z,5.10
2023-03-04T12:36:18.301Z,4.90
2023-03-04T12:39:06.929Z,5.00
2023-03-04T12:41:51.890Z,4.90
2023-03-04T12:44:20.936Z,4.90
2023-03-04T12:47:25.382Z,4.90
2023-03-04T12:49:59.964Z,4.90
2023-03-04T12:53:01.736Z,4.80
2023-03-04T12:55:44.002Z,4.80
2023-03-04T12:58:23.788Z,4.70
2023-03-04T13:01:03.706Z,4.70
2023-03-04T13:03:47.779Z,4.70
2023-03-04T13:06:24.019Z,4.90
2023-03-04T13:09:00.101Z,5.10
2023-03-04T13:11:26.921Z,5.30
2023-03-04T13:14:17.062Z,5.40
2023-03-04T13:16:49.160Z,5.40
2023-03-04T13:19:46.198Z,5.40
2023-03-04T13:22:34.877Z,5.50
2023-03-04T13:25:29.716Z,5.50
2023-03-04T13:28:05.260Z,5.60
2023-03-04T13:30:31.953Z,5.60
2023-03-04T13:33:10.908Z,5.70
2023-03-04T13:35:49.907Z,5.70
2023-03-04T13:38:32.308Z,5.70
2023-03-04T13:41:20.842Z,5.60
2023-03-04T13:43:52.801Z,5.70
2023-03-04T13:46:19.534Z,5.80
2023-03-04T13:48:52.453Z,5.90
2023-03-04T13:51:30.456Z,6.00
2023-03-04T13:54:00.593Z,6.00
2023-03-04T13:56:41.435Z,6.20
2023-03-04T13:59:08.061Z,6.20
2023-03-04T14:01:52.411Z,6.10
2023-03-04T14:04:37.249Z,6.10
2023-03-04T14:07:19.925Z,6.10
2023-03-04T14:10:01.696Z,6.00
2023-03-04T14:12:31.125Z,5.90
2023-03-04T14:15:01.196Z,5.70
2023-03-04T14:17:36.429Z,5.70
2023-03-04T14:20:05.245Z,5.70
2023-03-04T14:22:41.391Z,5.80
2023-03-04T14:25:25.644Z,5.80
2023-03-04T14:28:13.458Z,5.80
2023-03-04T14:30:43.973Z,5.80
2023-03-04T14:33:18.527Z,5.80
2023-03-04T14:35:52.166Z,5.70
2023-03-04T14:38:32.594Z,5.70
2023-03-04T14:41:21.449Z,5.60
2023-03-04T14:43:58.746Z,5.60
2023-03-04T14:46:36.748Z,5.40
2023-03-04T14:49:04.312Z,5.40
2023-03-04T14:51:45.908Z,5.30
2023-03-04T14:54:35.261Z,5.20
2023-03-04T14:57:25.881Z,4.80
2023-03-04T14:59:54.025Z,4.60
2023-03-04T15:02:31.578Z,4.40
2023-03-04T15:05:01.525Z,4.40
2023-03-04T15:07:36.285Z,4.40
2023-03-04T15:10:08.202Z,4.30
2023-03-04T15:12:36.438Z,4.40
2023-03-04T15:15:24.741Z,4.30
2023-03-04T15:18:21.722Z,4.40
2023-03-04T15:20:54.405Z,4.60
2023-03-04T15:23:21.132Z,4.60
2023-03-04T15:25:55.434Z,4.60
2023-03-04T15:28:23.124Z,4.60
2023-03-04T15:30:50.427Z,4.60
2023-03-04T15:33:18.302Z,4.60
2023-03-04T15:35:54.832Z,4.60
2023-03-04T15:38:22.408Z,4.70
2023-03-04T15:40:50.057Z,4.70
2023-03-04T15:43:21.501Z,4.80
2023-03-04T15:45:49.621Z,4.80
2023-03-04T15:48:18.148Z,4.80
2023-03-04T15:51:02.546Z,4.80
2023-03-04T15:53:36.864Z,4.90
2023-03-04T15:56:07.109Z,4.90
2023-03-04T15:58:35.249Z,4.90
2023-03-04T16:01:02.334Z,4.90
2023-03-04T16:03:29.133Z,4.90
2023-03-04T16:05:56.905Z,4.90
2023-03-04T16:08:25.077Z,5.00
2023-03-04T16:10:52.881Z,4.90
2023-03-04T16:13:22.217Z,4.80
2023-03-04T16:15:50.083Z,4.80
2023-03-04T16:18:17.310Z,4.80
2023-03-04T16:20:47.439Z,4.60
2023-03-04T16:23:18.844Z,4.60
2023-03-04T16:25:47.802Z,4.50
2023-03-04T16:28:15.116Z,4.50
2023-03-04T16:30:42.346Z,4.50
2023-03-04T16:33:13.775Z,4.40
2023-03-04T16:35:41.022Z,4.40
2023-03-04T16:38:27.876Z,4.30
2023-03-04T16:40:56.087Z,4.30
2023-03-04T16:43:23.348Z,4.30
2023-03-04T16:45:50.190Z,4.20
2023-03-04T16:48:17.277Z,4.20
2023-03-04T16:50:44.428Z,4.10
2023-03-04T16:53:29.507Z,4.20
2023-03-04T16:56:00.049Z,4.20
2023-03-04T16:58:27.189Z,4.20
2023-03-04T17:00:54.657Z,4.30
2023-03-04T17:03:21.750Z,4.30
2023-03-04T17:05:48.477Z,4.30
2023-03-04T17:08:15.145Z,4.20
2023-03-04T17:10:42.079Z,4.10
2023-03-04T17:13:08.766Z,3.90
2023-03-04T17:15:35.395Z,3.70
2023-03-04T17:18:02.116Z,3.60
2023-03-04T17:20:28.831Z,3.40
2023-03-04T17:22:55.517Z,3.20
2023-03-04T17:25:22.149Z,3.20
2023-03-04T17:27:48.795Z,3.20
2023-03-04T17:30:15.708Z,3.10
2023-03-04T17:32:42.449Z,3.10
2023-03-04T17:35:10.147Z,3.00
2023-03-04T17:37:37.193Z,3.10
2023-03-04T17:40:06.984Z,3.00
2023-03-04T17:42:33.719Z,3.00
2023-03-04T17:45:00.776Z,3.10
2023-03-04T17:47:27.375Z,3.10
2023-03-04T17:49:54.094Z,3.10
2023-03-04T17:52:21.418Z,3.10
2023-03-04T17:54:48.172Z,3.10
2023-03-04T17:57:14.916Z,3.10
2023-03-04T17:59:41.638Z,3.20
2023-03-04T18:02:16.546Z,3.20
2023-03-04T18:04:45.049Z,3.20
2023-03-04T18:07:12.099Z,3.30
2023-03-04T18:09:39.713Z,3.20
2023-03-04T18:12:06.701Z,3.20
2023-03-04T18:14:33.422Z,3.10
2023-03-04T18:17:00.107Z,3.20
2023-03-04T18:19:26.796Z,3.20
2023-03-04T18:21:53.477Z,3.20
2023-03-04T18:24:20.185Z,3.20
2023-03-04T18:26:46.896Z,3.10
2023-03-04T18:29:13.635Z,3.10
2023-03-04T18:31:40.394Z,3.10
2023-03-04T18:34:07.455Z,3.10
2023-03-04T18:36:34.212Z,3.10
2023-03-04T18:39:02.196Z,3.00
2023-03-04T18:41:29.055Z,3.00
2023-03-04T18:43:55.735Z,3.10
2023-03-04T18:46:31.459Z,3.10
2023-03-04T18:49:04.764Z,3.10
2023-03-04T18:51:31.915Z,3.10
2023-03-04T18:53:59.111Z,3.20
2023-03-04T18:56:52.160Z,3.10
2023-03-04T18:59:22.997Z,3.10
2023-03-04T19:01:52.980Z,3.10
2023-03-04T19:04:23.142Z,3.00
2023-03-04T19:06:49.969Z,3.00
2023-03-04T19:09:16.669Z,2.90
2023-03-04T19:11:43.379Z,3.00
2023-03-04T19:14:11.550Z,3.00
2023-03-04T19:16:38.709Z,3.00
2023-03-04T19:19:05.651Z,3.00
2023-03-04T19:21:32.507Z,2.90
2023-03-04T19:23:59.116Z,2.90
2023-03-04T19:26:25.780Z,2.90
2023-03-04T19:28:52.577Z,2.90
2023-03-04T19:31:19.211Z,2.90
2023-03-04T19:33:45.826Z,2.90
2023-03-04T19:36:12.568Z,3.00
2023-03-04T19:38:39.283Z,3.00
2023-03-04T19:41:14.818Z,3.10
2023-03-04T19:43:42.001Z,3.10
2023-03-04T19:46:10.016Z,3.10
2023-03-04T19:48:38.013Z,3.10
2023-03-04T19:51:23.521Z,3.00
2023-03-04T19:53:53.333Z,3.00
2023-03-04T19:56:21.154Z,3.00
2023-03-04T19:58:48.350Z,3.00
2023-03-04T20:01:27.513Z,3.00
2023-03-04T20:03:59.879Z,3.00
2023-03-04T20:06:27.450Z,3.00
2023-03-04T20:08:59.136Z,3.00
2023-03-04T20:11:27.859Z,3.00
2023-03-04T20:13:54.957Z,3.00
2023-03-04T20:16:21.634Z,3.00
2023-03-04T20:18:48.306Z,3.00
2023-03-04T20:21:15.102Z,3.00
2023-03-04T20:23:41.873Z,2.90
2023-03-04T20:26:08.720Z,2.90
2023-03-04T20:28:49.064Z,2.90
2023-03-04T20:31:31.345Z,2.90
2023-03-04T20:33:59.801Z,3.00
2023-03-04T20:36:28.496Z,2.90
2023-03-04T20:39:02.107Z,2.90
2023-03-04T20:41:30.136Z,2.90
2023-03-04T20:43:57.360Z,2.80
2023-03-04T20:46:41.245Z,2.90
2023-03-04T20:49:13.706Z,2.90
2023-03-04T20:51:40.604Z,2.90
2023-03-04T20:54:07.896Z,2.80
2023-03-04T20:56:35.197Z,2.70
2023-03-04T20:59:04.251Z,2.60
2023-03-04T21:01:31.605Z,2.50
2023-03-04T21:03:59.981Z,2.30
2023-03-04T21:06:29.012Z,2.30
2023-03-04T21:08:57.098Z,2.30
2023-03-04T21:11:24.282Z,2.30
2023-03-04T21:13:57.565Z,2.30
2023-03-04T21:16:27.321Z,2.20
2023-03-04T21:18:54.012Z,2.10
2023-03-04T21:21:23.401Z,2.10
2023-03-04T21:23:52.621Z,2.10
2023-03-04T21:26:19.938Z,2.10
2023-03-04T21:28:48.519Z,2.10
2023-03-04T21:31:31.128Z,2.10
2023-03-04T21:34:00.832Z,2.20
2023-03-04T21:36:27.667Z,2.20
2023-03-04T21:38:54.489Z,2.30
2023-03-04T21:41:24.126Z,2.30
2023-03-04T21:43:51.747Z,2.30
2023-03-04T21:46:19.074Z,2.20
2023-03-04T21:48:47.640Z,2.30
2023-03-04T21:51:15.636Z,2.20
2023-03-04T21:53:43.320Z,2.20
2023-03-04T21:56:11.931Z,2.20
2023-03-04T21:58:42.178Z,2.30
2023-03-04T22:01:10.730Z,2.30
2023-03-04T22:03:37.540Z,2.30
2023-03-04T22:06:06.452Z,2.20
2023-03-04T22:08:33.200Z,2.20
2023-03-04T22:11:06.757Z,2.10
2023-03-04T22:13:34.121Z,2.10
2023-03-04T22:16:01.957Z,2.10
2023-03-04T22:18:28.822Z,2.20
2023-03-04T22:21:04.410Z,2.10
2023-03-04T22:23:31.850Z,2.20
2023-03-04T22:26:02.881Z,2.10
2023-03-04T22:28:30.560Z,2.00
2023-03-04T22:30:57.299Z,1.90
2023-03-04T22:33:24.944Z,1.90
2023-03-04T22:35:52.498Z,1.90
2023-03-04T22:38:20.287Z,1.80
2023-03-04T22:40:48.699Z,1.80
2023-03-04T22:43:15.336Z,1.80
2023-03-04T22:45:42.065Z,1.90
2023-03-04T22:48:08.728Z,1.90
2023-03-04T22:50:36.042Z,1.90
2023-03-04T22:53:04.692Z,2.00
2023-03-04T22:55:31.307Z,2.00
2023-03-04T22:57:57.996Z,2.00
2023-03-04T23:00:26.977Z,1.90
2023-03-04T23:02:54.578Z,2.00
2023-03-04T23:05:21.561Z,2.10
2023-03-04T23:07:49.683Z,2.10
2023-03-04T23:10:19.859Z,2.10
2023-03-04T23:12:46.847Z,2.10
2023-03-04T23:15:16.356Z,2.10
2023-03-04T23:17:43.966Z,2.20
2023-03-04T23:20:13.553Z,2.10
2023-03-04T23:22:40.211Z,2.10
2023-03-04T23:25:07.741Z,2.00
2023-03-04T23:27:34.404Z,2.10
2023-03-04T23:30:01.083Z,2.10
2023-03-04T23:32:27.782Z,2.10
2023-03-04T23:34:56.002Z,2.00
2023-03-04T23:37:23.096Z,2.00
2023-03-04T23:39:50.203Z,2.00
2023-03-04T23:42:16.897Z,2.00
2023-03-04T23:44:43.716Z,2.10
2023-03-04T23:47:10.582Z,2.10
2023-03-04T23:49:37.293Z,2.10
2023-03-04T23:52:04.341Z,2.10
2023-03-04T23:54:31.211Z,2.00
2023-03-04T23:57:00.448Z,2.10
2023-03-04T23:59:28.664Z,2.10
